sensor_id;sensor_type;location;lat;lon;timestamp;P1;P2;P0
77320;PMS7003;66382;52.252;8.780;2023-12-20T00:00:04;6.25;6.25;5.00
77320;PMS7003;66382;52.252;8.780;2023-12-20T00:02:31;5.00;5.00;4.00
77320;PMS7003;66382;52.252;8.780;2023-12-20T00:04:56;6.00;6.00;5.00
77320;PMS7003;66382;52.252;8.780;2023-12-20T00:07:23;6.50;6.50;5.00
77320;PMS7003;66382;52.252;8.780;2023-12-20T00:09:48;6.00;6.00;4.75
77320;PMS7003;66382;52.252;8.780;2023-12-20T00:12:14;6.75;6.75;4.75
77320;PMS7003;66382;52.252;8.780;2023-12-20T00:14:39;6.00;6.00;4.75
77320;PMS7003;66382;52.252;8.780;2023-12-20T00:17:05;5.00;5.00;3.00
77320;PMS7003;66382;52.252;8.780;2023-12-20T00:19:30;4.00;4.00;3.00
77320;PMS7003;66382;52.252;8.780;2023-12-20T00:21:56;4.00;4.00;2.75
77320;PMS7003;66382;52.252;8.780;2023-12-20T00:24:22;3.50;3.50;3.00
77320;PMS7003;66382;52.252;8.780;2023-12-20T00:26:48;4.00;4.00;3.00
77320;PMS7003;66382;52.252;8.780;2023-12-20T00:29:13;3.75;3.75;3.00
77320;PMS7003;66382;52.252;8.780;2023-12-20T00:31:39;3.75;3.75;3.00
77320;PMS7003;66382;52.252;8.780;2023-12-20T00:34:04;2.75;2.75;2.00
77320;PMS7003;66382;52.252;8.780;2023-12-20T00:36:30;4.00;4.00;4.00
77320;PMS7003;66382;52.252;8.780;2023-12-20T00:38:55;3.50;3.50;3.00
77320;PMS7003;66382;52.252;8.780;2023-12-20T00:41:22;3.00;3.00;2.75
77320;PMS7003;66382;52.252;8.780;2023-12-20T00:43:47;4.50;4.00;3.00
77320;PMS7003;66382;52.252;8.780;2023-12-20T00:46:13;4.00;4.00;3.25
77320;PMS7003;66382;52.252;8.780;2023-12-20T00:48:38;4.00;4.00;3.25
77320;PMS7003;66382;52.252;8.780;2023-12-20T00:51:04;3.50;3.50;2.75
77320;PMS7003;66382;52.252;8.780;2023-12-20T00:53:29;3.00;3.00;2.00
77320;PMS7003;66382;52.252;8.780;2023-12-20T00:55:55;3.00;3.00;2.00
77320;PMS7003;66382;52.252;8.780;2023-12-20T00:58:22;4.00;4.00;3.00
77320;PMS7003;66382;52.252;8.780;2023-12-20T01:00:47;3.00;3.00;2.00
77320;PMS7003;66382;52.252;8.780;2023-12-20T01:03:12;2.50;2.00;2.00
77320;PMS7003;66382;52.252;8.780;2023-12-20T01:05:38;3.00;3.00;2.25
77320;PMS7003;66382;52.252;8.780;2023-12-20T01:08:04;1.75;1.75;1.00
77320;PMS7003;66382;52.252;8.780;2023-12-20T01:10:30;3.00;3.00;2.00
77320;PMS7003;66382;52.252;8.780;2023-12-20T01:12:55;2.50;2.50;1.00
77320;PMS7003;66382;52.252;8.780;2023-12-20T01:15:22;1.00;1.00;1.00
77320;PMS7003;66382;52.252;8.780;2023-12-20T01:17:47;2.50;2.50;1.25
77320;PMS7003;66382;52.252;8.780;2023-12-20T01:20:13;1.00;1.00;1.00
77320;PMS7003;66382;52.252;8.780;2023-12-20T01:22:38;2.00;2.00;1.00
77320;PMS7003;66382;52.252;8.780;2023-12-20T01:25:04;2.00;2.00;1.25
77320;PMS7003;66382;52.252;8.780;2023-12-20T01:27:30;1.00;1.00;1.00
77320;PMS7003;66382;52.252;8.780;2023-12-20T01:29:55;3.00;1.00;0.25
77320;PMS7003;66382;52.252;8.780;2023-12-20T01:32:22;1.50;1.50;1.00
77320;PMS7003;66382;52.252;8.780;2023-12-20T01:34:47;1.00;1.00;1.00
77320;PMS7003;66382;52.252;8.780;2023-12-20T01:37:13;2.00;2.00;2.00
77320;PMS7003;66382;52.252;8.780;2023-12-20T01:39:38;1.75;1.75;1.00
77320;PMS7003;66382;52.252;8.780;2023-12-20T01:42:04;1.00;1.00;1.00
77320;PMS7003;66382;52.252;8.780;2023-12-20T01:44:30;3.00;2.00;1.75
77320;PMS7003;66382;52.252;8.780;2023-12-20T01:46:55;2.00;2.00;1.00
77320;PMS7003;66382;52.252;8.780;2023-12-20T01:49:22;1.00;1.00;1.00
77320;PMS7003;66382;52.252;8.780;2023-12-20T01:51:48;1.00;1.00;0.00
77320;PMS7003;66382;52.252;8.780;2023-12-20T01:54:15;0.75;0.75;0.00
77320;PMS7003;66382;52.252;8.780;2023-12-20T01:56:41;1.75;1.75;1.25
77320;PMS7003;66382;52.252;8.780;2023-12-20T01:59:07;1.00;1.00;1.00
77320;PMS7003;66382;52.252;8.780;2023-12-20T02:01:32;1.00;1.00;0.00
77320;PMS7003;66382;52.252;8.780;2023-12-20T02:03:58;1.25;1.25;1.00
77320;PMS7003;66382;52.252;8.780;2023-12-20T02:06:26;0.00;0.00;0.00
77320;PMS7003;66382;52.252;8.780;2023-12-20T02:08:54;1.00;1.00;1.00
77320;PMS7003;66382;52.252;8.780;2023-12-20T02:11:20;1.50;1.50;1.25
77320;PMS7003;66382;52.252;8.780;2023-12-20T02:13:46;2.00;2.00;1.25
77320;PMS7003;66382;52.252;8.780;2023-12-20T02:16:11;4.00;4.00;3.00
77320;PMS7003;66382;52.252;8.780;2023-12-20T02:18:37;4.00;4.00;2.50
77320;PMS7003;66382;52.252;8.780;2023-12-20T02:21:03;2.50;2.50;1.50
77320;PMS7003;66382;52.252;8.780;2023-12-20T02:23:31;1.50;1.50;1.50
77320;PMS7003;66382;52.252;8.780;2023-12-20T02:25:56;1.75;1.75;1.00
77320;PMS7003;66382;52.252;8.780;2023-12-20T02:28:21;2.50;2.00;2.00
77320;PMS7003;66382;52.252;8.780;2023-12-20T02:30:47;2.00;2.00;1.00
77320;PMS7003;66382;52.252;8.780;2023-12-20T02:33:13;1.00;1.00;1.00
77320;PMS7003;66382;52.252;8.780;2023-12-20T02:35:40;2.00;2.00;1.50
77320;PMS7003;66382;52.252;8.780;2023-12-20T02:38:05;2.00;2.00;2.00
77320;PMS7003;66382;52.252;8.780;2023-12-20T02:40:32;1.75;1.75;1.00
77320;PMS7003;66382;52.252;8.780;2023-12-20T02:42:57;2.00;2.00;1.50
77320;PMS7003;66382;52.252;8.780;2023-12-20T02:45:23;3.00;3.00;2.00
77320;PMS7003;66382;52.252;8.780;2023-12-20T02:47:48;1.00;1.00;1.00
77320;PMS7003;66382;52.252;8.780;2023-12-20T02:50:14;2.00;2.00;1.50
77320;PMS7003;66382;52.252;8.780;2023-12-20T02:52:39;1.00;1.00;1.00
77320;PMS7003;66382;52.252;8.780;2023-12-20T02:55:05;2.00;2.00;1.00
77320;PMS7003;66382;52.252;8.780;2023-12-20T02:57:32;2.00;2.00;1.00
77320;PMS7003;66382;52.252;8.780;2023-12-20T02:59:57;1.75;1.75;1.00
77320;PMS7003;66382;52.252;8.780;2023-12-20T03:02:23;1.00;1.00;1.00
77320;PMS7003;66382;52.252;8.780;2023-12-20T03:04:48;1.25;1.25;1.00
77320;PMS7003;66382;52.252;8.780;2023-12-20T03:07:14;1.00;1.00;1.00
77320;PMS7003;66382;52.252;8.780;2023-12-20T03:09:39;2.00;2.00;1.00
77320;PMS7003;66382;52.252;8.780;2023-12-20T03:12:04;3.00;3.00;2.00
77320;PMS7003;66382;52.252;8.780;2023-12-20T03:14:31;1.00;1.00;1.00
77320;PMS7003;66382;52.252;8.780;2023-12-20T03:16:57;1.50;1.50;1.00
77320;PMS7003;66382;52.252;8.780;2023-12-20T03:19:22;2.75;2.75;1.00
77320;PMS7003;66382;52.252;8.780;2023-12-20T03:21:48;2.00;2.00;2.00
77320;PMS7003;66382;52.252;8.780;2023-12-20T03:24:13;1.25;1.25;1.00
77320;PMS7003;66382;52.252;8.780;2023-12-20T03:26:38;3.00;3.00;2.50
77320;PMS7003;66382;52.252;8.780;2023-12-20T03:29:04;4.00;4.00;3.00
77320;PMS7003;66382;52.252;8.780;2023-12-20T03:31:31;2.50;2.50;2.00
77320;PMS7003;66382;52.252;8.780;2023-12-20T03:33:56;3.25;3.25;3.00
77320;PMS7003;66382;52.252;8.780;2023-12-20T03:36:22;4.75;3.50;2.75
77320;PMS7003;66382;52.252;8.780;2023-12-20T03:38:47;2.50;2.50;2.00
77320;PMS7003;66382;52.252;8.780;2023-12-20T03:41:13;3.25;3.25;2.50
77320;PMS7003;66382;52.252;8.780;2023-12-20T03:43:38;4.50;4.50;3.00
77320;PMS7003;66382;52.252;8.780;2023-12-20T03:46:04;3.50;3.50;3.00
77320;PMS7003;66382;52.252;8.780;2023-12-20T03:48:30;2.50;2.50;2.00
77320;PMS7003;66382;52.252;8.780;2023-12-20T03:50:56;4.50;4.50;4.00
77320;PMS7003;66382;52.252;8.780;2023-12-20T03:53:22;3.00;3.00;2.00
77320;PMS7003;66382;52.252;8.780;2023-12-20T03:55:47;4.00;4.00;3.25
77320;PMS7003;66382;52.252;8.780;2023-12-20T03:58:12;5.75;5.75;4.00
77320;PMS7003;66382;52.252;8.780;2023-12-20T04:00:38;4.50;4.50;3.50
77320;PMS7003;66382;52.252;8.780;2023-12-20T04:03:04;5.00;5.00;4.00
77320;PMS7003;66382;52.252;8.780;2023-12-20T04:05:31;3.00;3.00;2.75
77320;PMS7003;66382;52.252;8.780;2023-12-20T04:07:56;5.25;5.25;4.00
77320;PMS7003;66382;52.252;8.780;2023-12-20T04:10:21;3.50;3.50;3.00
77320;PMS7003;66382;52.252;8.780;2023-12-20T04:12:47;5.00;5.00;4.00
77320;PMS7003;66382;52.252;8.780;2023-12-20T04:15:12;7.00;7.00;5.00
77320;PMS7003;66382;52.252;8.780;2023-12-20T04:17:38;6.50;6.50;5.25
77320;PMS7003;66382;52.252;8.780;2023-12-20T04:20:04;4.25;4.25;3.75
77320;PMS7003;66382;52.252;8.780;2023-12-20T04:22:31;5.00;5.00;5.00
77320;PMS7003;66382;52.252;8.780;2023-12-20T04:24:57;5.50;5.50;4.25
77320;PMS7003;66382;52.252;8.780;2023-12-20T04:27:22;7.00;7.00;6.00
77320;PMS7003;66382;52.252;8.780;2023-12-20T04:29:48;6.00;6.00;4.50
77320;PMS7003;66382;52.252;8.780;2023-12-20T04:32:13;4.00;4.00;4.00
77320;PMS7003;66382;52.252;8.780;2023-12-20T04:34:38;6.25;6.25;5.25
77320;PMS7003;66382;52.252;8.780;2023-12-20T04:37:04;7.00;7.00;5.00
77320;PMS7003;66382;52.252;8.780;2023-12-20T04:39:31;6.25;6.25;5.00
77320;PMS7003;66382;52.252;8.780;2023-12-20T04:41:56;7.25;7.25;6.00
77320;PMS7003;66382;52.252;8.780;2023-12-20T04:44:21;12.00;12.00;10.00
77320;PMS7003;66382;52.252;8.780;2023-12-20T04:46:47;9.25;9.25;6.75
77320;PMS7003;66382;52.252;8.780;2023-12-20T04:49:12;7.25;7.25;6.75
77320;PMS7003;66382;52.252;8.780;2023-12-20T04:51:38;9.75;9.75;6.00
77320;PMS7003;66382;52.252;8.780;2023-12-20T04:54:03;7.00;7.00;6.00
77320;PMS7003;66382;52.252;8.780;2023-12-20T04:56:30;4.25;4.25;4.00
77320;PMS7003;66382;52.252;8.780;2023-12-20T04:58:57;7.00;7.00;6.00
77320;PMS7003;66382;52.252;8.780;2023-12-20T05:01:22;6.50;6.50;5.50
77320;PMS7003;66382;52.252;8.780;2023-12-20T05:03:48;6.25;6.25;4.75
77320;PMS7003;66382;52.252;8.780;2023-12-20T05:06:13;6.00;6.00;4.50
77320;PMS7003;66382;52.252;8.780;2023-12-20T05:08:38;6.00;6.00;5.00
77320;PMS7003;66382;52.252;8.780;2023-12-20T05:11:04;9.25;9.25;6.50
77320;PMS7003;66382;52.252;8.780;2023-12-20T05:13:31;8.00;8.00;6.00
77320;PMS7003;66382;52.252;8.780;2023-12-20T05:15:56;6.75;6.75;5.75
77320;PMS7003;66382;52.252;8.780;2023-12-20T05:18:22;6.00;6.00;5.00
77320;PMS7003;66382;52.252;8.780;2023-12-20T05:20:47;6.00;6.00;6.00
77320;PMS7003;66382;52.252;8.780;2023-12-20T05:23:12;6.75;6.75;5.00
77320;PMS7003;66382;52.252;8.780;2023-12-20T05:25:38;6.00;6.00;5.00
77320;PMS7003;66382;52.252;8.780;2023-12-20T05:28:04;6.00;6.00;5.00
77320;PMS7003;66382;52.252;8.780;2023-12-20T05:30:31;6.75;6.75;5.00
77320;PMS7003;66382;52.252;8.780;2023-12-20T05:32:56;9.50;9.50;7.00
77320;PMS7003;66382;52.252;8.780;2023-12-20T05:35:21;6.25;6.25;4.75
77320;PMS7003;66382;52.252;8.780;2023-12-20T05:37:47;7.00;7.00;4.25
77320;PMS7003;66382;52.252;8.780;2023-12-20T05:40:12;8.75;8.75;5.00
77320;PMS7003;66382;52.252;8.780;2023-12-20T05:42:38;10.00;9.50;6.00
77320;PMS7003;66382;52.252;8.780;2023-12-20T05:45:03;6.50;6.50;5.00
77320;PMS7003;66382;52.252;8.780;2023-12-20T05:47:31;5.50;5.50;4.00
77320;PMS7003;66382;52.252;8.780;2023-12-20T05:49:56;7.75;5.00;4.00
77320;PMS7003;66382;52.252;8.780;2023-12-20T05:52:22;5.00;5.00;4.00
77320;PMS7003;66382;52.252;8.780;2023-12-20T05:54:47;4.50;4.50;4.00
77320;PMS7003;66382;52.252;8.780;2023-12-20T05:57:13;5.25;5.25;4.25
77320;PMS7003;66382;52.252;8.780;2023-12-20T05:59:38;6.75;6.75;5.00
77320;PMS7003;66382;52.252;8.780;2023-12-20T06:02:04;5.25;5.25;4.00
77320;PMS7003;66382;52.252;8.780;2023-12-20T06:04:31;6.25;6.25;5.00
77320;PMS7003;66382;52.252;8.780;2023-12-20T06:06:56;5.00;5.00;4.00
77320;PMS7003;66382;52.252;8.780;2023-12-20T06:09:22;6.75;6.75;5.00
77320;PMS7003;66382;52.252;8.780;2023-12-20T06:11:47;4.75;4.75;3.75
77320;PMS7003;66382;52.252;8.780;2023-12-20T06:14:12;5.25;5.25;4.00
77320;PMS7003;66382;52.252;8.780;2023-12-20T06:16:38;4.50;4.50;3.50
77320;PMS7003;66382;52.252;8.780;2023-12-20T06:19:03;5.50;5.50;4.25
77320;PMS7003;66382;52.252;8.780;2023-12-20T06:21:30;6.00;6.00;3.00
77320;PMS7003;66382;52.252;8.780;2023-12-20T06:23:56;5.00;5.00;4.00
77320;PMS7003;66382;52.252;8.780;2023-12-20T06:26:21;4.00;4.00;3.00
77320;PMS7003;66382;52.252;8.780;2023-12-20T06:28:46;3.00;3.00;3.00
77320;PMS7003;66382;52.252;8.780;2023-12-20T06:31:12;5.50;5.50;3.50
77320;PMS7003;66382;52.252;8.780;2023-12-20T06:33:37;6.25;5.50;3.50
77320;PMS7003;66382;52.252;8.780;2023-12-20T06:36:03;4.00;4.00;3.50
77320;PMS7003;66382;52.252;8.780;2023-12-20T06:38:31;5.00;5.00;4.33
77320;PMS7003;66382;52.252;8.780;2023-12-20T06:40:56;5.00;5.00;4.00
77320;PMS7003;66382;52.252;8.780;2023-12-20T06:43:21;6.50;6.00;4.00
77320;PMS7003;66382;52.252;8.780;2023-12-20T06:45:47;4.00;4.00;3.00
77320;PMS7003;66382;52.252;8.780;2023-12-20T06:48:12;7.00;6.50;5.25
77320;PMS7003;66382;52.252;8.780;2023-12-20T06:50:38;4.75;4.75;4.00
77320;PMS7003;66382;52.252;8.780;2023-12-20T06:53:03;6.50;6.50;5.25
77320;PMS7003;66382;52.252;8.780;2023-12-20T06:55:30;7.00;7.00;5.00
77320;PMS7003;66382;52.252;8.780;2023-12-20T06:57:55;8.25;8.25;6.00
77320;PMS7003;66382;52.252;8.780;2023-12-20T07:00:21;5.75;5.75;5.00
77320;PMS7003;66382;52.252;8.780;2023-12-20T07:02:46;10.00;10.00;6.00
77320;PMS7003;66382;52.252;8.780;2023-12-20T07:05:12;12.25;12.25;10.00
77320;PMS7003;66382;52.252;8.780;2023-12-20T07:07:37;6.25;6.25;4.50
77320;PMS7003;66382;52.252;8.780;2023-12-20T07:10:03;10.00;10.00;6.50
77320;PMS7003;66382;52.252;8.780;2023-12-20T07:12:30;11.25;11.25;8.50
77320;PMS7003;66382;52.252;8.780;2023-12-20T07:14:56;5.25;5.25;4.00
77320;PMS7003;66382;52.252;8.780;2023-12-20T07:17:21;8.25;8.25;6.00
77320;PMS7003;66382;52.252;8.780;2023-12-20T07:19:46;6.50;6.50;5.50
77320;PMS7003;66382;52.252;8.780;2023-12-20T07:22:12;10.00;10.00;6.75
77320;PMS7003;66382;52.252;8.780;2023-12-20T07:24:37;10.50;10.50;7.75
77320;PMS7003;66382;52.252;8.780;2023-12-20T07:27:03;6.75;6.75;6.00
77320;PMS7003;66382;52.252;8.780;2023-12-20T07:29:30;7.25;7.25;6.25
77320;PMS7003;66382;52.252;8.780;2023-12-20T07:31:56;12.25;12.25;9.25
77320;PMS7003;66382;52.252;8.780;2023-12-20T07:34:21;11.25;11.25;8.25
77320;PMS7003;66382;52.252;8.780;2023-12-20T07:36:46;7.50;7.50;6.25
77320;PMS7003;66382;52.252;8.780;2023-12-20T07:39:14;7.00;7.00;6.00
77320;PMS7003;66382;52.252;8.780;2023-12-20T07:41:39;8.50;8.50;6.25
77320;PMS7003;66382;52.252;8.780;2023-12-20T07:44:06;6.50;6.50;6.00
77320;PMS7003;66382;52.252;8.780;2023-12-20T07:46:33;7.75;7.75;5.50
77320;PMS7003;66382;52.252;8.780;2023-12-20T07:48:59;8.00;8.00;6.00
77320;PMS7003;66382;52.252;8.780;2023-12-20T07:51:24;8.50;8.50;7.00
77320;PMS7003;66382;52.252;8.780;2023-12-20T07:53:49;11.00;11.00;7.00
77320;PMS7003;66382;52.252;8.780;2023-12-20T07:56:16;8.25;8.25;6.00
77320;PMS7003;66382;52.252;8.780;2023-12-20T07:58:42;10.25;10.25;6.50
77320;PMS7003;66382;52.252;8.780;2023-12-20T08:01:08;8.25;8.25;6.00
77320;PMS7003;66382;52.252;8.780;2023-12-20T08:03:35;7.25;7.25;4.75
77320;PMS7003;66382;52.252;8.780;2023-12-20T08:06:00;8.50;6.50;5.50
77320;PMS7003;66382;52.252;8.780;2023-12-20T08:08:27;12.50;12.50;9.00
77320;PMS7003;66382;52.252;8.780;2023-12-20T08:10:52;20.00;20.00;13.75
77320;PMS7003;66382;52.252;8.780;2023-12-20T08:13:18;12.00;12.00;7.75
77320;PMS7003;66382;52.252;8.780;2023-12-20T08:15:43;10.00;10.00;7.75
77320;PMS7003;66382;52.252;8.780;2023-12-20T08:18:09;9.50;9.50;7.50
77320;PMS7003;66382;52.252;8.780;2023-12-20T08:20:35;10.50;10.50;7.25
77320;PMS7003;66382;52.252;8.780;2023-12-20T08:23:01;10.50;10.50;8.25
77320;PMS7003;66382;52.252;8.780;2023-12-20T08:25:26;8.75;8.75;7.00
77320;PMS7003;66382;52.252;8.780;2023-12-20T08:27:52;9.75;7.00;5.50
77320;PMS7003;66382;52.252;8.780;2023-12-20T08:30:17;9.25;9.25;6.00
77320;PMS7003;66382;52.252;8.780;2023-12-20T08:32:42;7.00;7.00;5.00
77320;PMS7003;66382;52.252;8.780;2023-12-20T08:35:08;6.00;6.00;5.00
77320;PMS7003;66382;52.252;8.780;2023-12-20T08:37:35;7.50;7.50;6.00
77320;PMS7003;66382;52.252;8.780;2023-12-20T08:40:00;8.25;8.25;6.75
77320;PMS7003;66382;52.252;8.780;2023-12-20T08:42:26;5.75;5.75;5.00
77320;PMS7003;66382;52.252;8.780;2023-12-20T08:44:51;7.75;7.75;6.00
77320;PMS7003;66382;52.252;8.780;2023-12-20T08:47:16;7.50;7.50;5.50
77320;PMS7003;66382;52.252;8.780;2023-12-20T08:49:42;7.00;7.00;5.75
77320;PMS7003;66382;52.252;8.780;2023-12-20T08:52:07;5.00;5.00;4.50
77320;PMS7003;66382;52.252;8.780;2023-12-20T08:54:34;6.00;6.00;4.50
77320;PMS7003;66382;52.252;8.780;2023-12-20T08:56:59;4.50;4.50;4.00
77320;PMS7003;66382;52.252;8.780;2023-12-20T08:59:25;6.25;6.25;5.00
77320;PMS7003;66382;52.252;8.780;2023-12-20T09:01:50;7.00;7.00;5.00
77320;PMS7003;66382;52.252;8.780;2023-12-20T09:04:16;6.50;6.50;5.25
77320;PMS7003;66382;52.252;8.780;2023-12-20T09:06:41;7.00;7.00;6.00
77320;PMS7003;66382;52.252;8.780;2023-12-20T09:09:07;7.00;7.00;5.25
77320;PMS7003;66382;52.252;8.780;2023-12-20T09:11:33;6.25;6.25;5.00
77320;PMS7003;66382;52.252;8.780;2023-12-20T09:13:59;6.00;5.00;4.00
77320;PMS7003;66382;52.252;8.780;2023-12-20T09:16:24;7.25;6.25;4.25
77320;PMS7003;66382;52.252;8.780;2023-12-20T09:18:50;7.00;7.00;5.00
77320;PMS7003;66382;52.252;8.780;2023-12-20T09:21:15;4.00;4.00;4.00
77320;PMS7003;66382;52.252;8.780;2023-12-20T09:23:40;6.25;6.25;5.00
77320;PMS7003;66382;52.252;8.780;2023-12-20T09:26:06;7.75;7.75;5.75
77320;PMS7003;66382;52.252;8.780;2023-12-20T09:28:33;7.75;7.75;5.50
77320;PMS7003;66382;52.252;8.780;2023-12-20T09:30:58;7.25;7.25;5.00
77320;PMS7003;66382;52.252;8.780;2023-12-20T09:33:23;7.00;7.00;6.25
77320;PMS7003;66382;52.252;8.780;2023-12-20T09:35:49;6.00;6.00;3.75
77320;PMS7003;66382;52.252;8.780;2023-12-20T09:38:14;7.00;7.00;5.75
77320;PMS7003;66382;52.252;8.780;2023-12-20T09:40:41;7.75;7.75;6.00
77320;PMS7003;66382;52.252;8.780;2023-12-20T09:43:08;6.25;6.25;4.75
77320;PMS7003;66382;52.252;8.780;2023-12-20T09:45:37;6.00;6.00;5.00
77320;PMS7003;66382;52.252;8.780;2023-12-20T09:48:04;6.00;6.00;5.00
77320;PMS7003;66382;52.252;8.780;2023-12-20T09:50:30;6.50;6.50;5.00
77320;PMS7003;66382;52.252;8.780;2023-12-20T09:52:55;6.50;6.50;4.75
77320;PMS7003;66382;52.252;8.780;2023-12-20T09:55:23;6.25;6.25;5.00
77320;PMS7003;66382;52.252;8.780;2023-12-20T09:57:50;8.50;7.50;5.00
77320;PMS7003;66382;52.252;8.780;2023-12-20T10:00:16;8.00;8.00;6.00
77320;PMS7003;66382;52.252;8.780;2023-12-20T10:02:45;8.00;8.00;6.00
77320;PMS7003;66382;52.252;8.780;2023-12-20T10:05:16;8.50;8.50;6.25
77320;PMS7003;66382;52.252;8.780;2023-12-20T10:07:42;9.25;8.50;6.25
77320;PMS7003;66382;52.252;8.780;2023-12-20T10:10:07;8.00;7.00;5.75
77320;PMS7003;66382;52.252;8.780;2023-12-20T10:12:33;7.00;7.00;5.50
77320;PMS7003;66382;52.252;8.780;2023-12-20T10:14:58;6.00;6.00;5.00
77320;PMS7003;66382;52.252;8.780;2023-12-20T10:17:24;9.50;9.50;6.50
77320;PMS7003;66382;52.252;8.780;2023-12-20T10:19:51;6.25;6.25;5.25
77320;PMS7003;66382;52.252;8.780;2023-12-20T10:22:16;7.00;6.75;6.00
77320;PMS7003;66382;52.252;8.780;2023-12-20T10:24:42;8.25;8.25;5.00
77320;PMS7003;66382;52.252;8.780;2023-12-20T10:27:07;17.25;17.25;11.25
77320;PMS7003;66382;52.252;8.780;2023-12-20T10:29:33;13.50;13.50;11.50
77320;PMS7003;66382;52.252;8.780;2023-12-20T10:32:00;11.75;11.75;8.50
77320;PMS7003;66382;52.252;8.780;2023-12-20T10:34:45;12.25;12.25;9.75
77320;PMS7003;66382;52.252;8.780;2023-12-20T10:37:12;14.50;14.50;12.00
77320;PMS7003;66382;52.252;8.780;2023-12-20T10:39:37;11.75;11.75;7.75
77320;PMS7003;66382;52.252;8.780;2023-12-20T10:42:04;11.25;11.25;8.00
77320;PMS7003;66382;52.252;8.780;2023-12-20T10:44:30;10.75;10.75;6.75
77320;PMS7003;66382;52.252;8.780;2023-12-20T10:46:56;11.50;11.50;7.50
77320;PMS7003;66382;52.252;8.780;2023-12-20T10:49:22;15.75;14.75;11.25
77320;PMS7003;66382;52.252;8.780;2023-12-20T10:51:48;10.50;10.50;7.00
77320;PMS7003;66382;52.252;8.780;2023-12-20T10:54:16;6.75;6.75;6.00
77320;PMS7003;66382;52.252;8.780;2023-12-20T10:56:42;8.25;8.25;6.50
77320;PMS7003;66382;52.252;8.780;2023-12-20T10:59:08;5.25;5.25;4.00
77320;PMS7003;66382;52.252;8.780;2023-12-20T11:01:36;7.00;7.00;6.00
77320;PMS7003;66382;52.252;8.780;2023-12-20T11:04:03;8.00;7.75;5.00
77320;PMS7003;66382;52.252;8.780;2023-12-20T11:06:33;6.50;6.50;5.00
77320;PMS7003;66382;52.252;8.780;2023-12-20T11:09:08;5.00;5.00;4.00
77320;PMS7003;66382;52.252;8.780;2023-12-20T11:11:42;6.75;6.75;4.75
77320;PMS7003;66382;52.252;8.780;2023-12-20T11:14:21;5.00;5.00;4.00
77320;PMS7003;66382;52.252;8.780;2023-12-20T11:16:50;6.50;6.50;5.00
77320;PMS7003;66382;52.252;8.780;2023-12-20T11:19:15;4.50;4.50;4.00
77320;PMS7003;66382;52.252;8.780;2023-12-20T11:21:41;4.75;4.75;3.75
77320;PMS7003;66382;52.252;8.780;2023-12-20T11:24:07;4.00;4.00;3.00
77320;PMS7003;66382;52.252;8.780;2023-12-20T11:26:33;3.75;3.75;2.75
77320;PMS7003;66382;52.252;8.780;2023-12-20T11:31:59;3.75;3.75;3.00
77320;PMS7003;66382;52.252;8.780;2023-12-20T11:34:26;3.00;3.00;2.00
77320;PMS7003;66382;52.252;8.780;2023-12-20T11:36:56;3.00;3.00;2.00
77320;PMS7003;66382;52.252;8.780;2023-12-20T11:39:22;4.00;4.00;3.00
77320;PMS7003;66382;52.252;8.780;2023-12-20T11:41:48;4.00;4.00;3.00
77320;PMS7003;66382;52.252;8.780;2023-12-20T11:44:14;3.75;3.75;3.00
77320;PMS7003;66382;52.252;8.780;2023-12-20T11:46:43;4.00;4.00;3.00
77320;PMS7003;66382;52.252;8.780;2023-12-20T11:49:09;4.00;4.00;3.00
77320;PMS7003;66382;52.252;8.780;2023-12-20T11:51:35;3.25;3.25;2.00
77320;PMS7003;66382;52.252;8.780;2023-12-20T11:54:00;3.75;3.75;2.75
77320;PMS7003;66382;52.252;8.780;2023-12-20T11:56:25;5.25;5.25;4.00
77320;PMS7003;66382;52.252;8.780;2023-12-20T11:58:51;3.50;3.50;3.00
77320;PMS7003;66382;52.252;8.780;2023-12-20T12:01:16;4.25;4.25;2.50
77320;PMS7003;66382;52.252;8.780;2023-12-20T12:03:43;4.00;4.00;4.00
77320;PMS7003;66382;52.252;8.780;2023-12-20T12:06:09;3.25;3.00;2.00
77320;PMS7003;66382;52.252;8.780;2023-12-20T12:08:35;2.75;2.75;2.75
77320;PMS7003;66382;52.252;8.780;2023-12-20T12:11:00;4.00;4.00;2.75
77320;PMS7003;66382;52.252;8.780;2023-12-20T12:13:26;4.25;4.25;3.50
77320;PMS7003;66382;52.252;8.780;2023-12-20T12:15:52;2.00;2.00;2.00
77320;PMS7003;66382;52.252;8.780;2023-12-20T12:18:18;3.00;3.00;3.00
77320;PMS7003;66382;52.252;8.780;2023-12-20T12:20:45;7.25;7.25;5.00
77320;PMS7003;66382;52.252;8.780;2023-12-20T12:23:10;3.25;3.25;2.50
77320;PMS7003;66382;52.252;8.780;2023-12-20T12:25:36;2.50;2.50;2.00
77320;PMS7003;66382;52.252;8.780;2023-12-20T12:28:01;2.75;2.75;2.75
77320;PMS7003;66382;52.252;8.780;2023-12-20T12:30:27;2.00;2.00;1.00
77320;PMS7003;66382;52.252;8.780;2023-12-20T12:32:53;1.25;0.75;0.00
77320;PMS7003;66382;52.252;8.780;2023-12-20T12:35:20;1.00;1.00;1.00
77320;PMS7003;66382;52.252;8.780;2023-12-20T12:37:48;3.75;3.75;3.00
77320;PMS7003;66382;52.252;8.780;2023-12-20T12:40:14;28.75;28.75;21.00
77320;PMS7003;66382;52.252;8.780;2023-12-20T12:42:41;2.50;2.50;2.00
77320;PMS7003;66382;52.252;8.780;2023-12-20T12:45:07;1.50;1.50;1.50
77320;PMS7003;66382;52.252;8.780;2023-12-20T12:47:33;1.00;1.00;1.00
77320;PMS7003;66382;52.252;8.780;2023-12-20T12:49:59;1.75;1.75;1.00
77320;PMS7003;66382;52.252;8.780;2023-12-20T12:52:25;1.00;1.00;1.00
77320;PMS7003;66382;52.252;8.780;2023-12-20T12:54:51;2.00;2.00;1.00
77320;PMS7003;66382;52.252;8.780;2023-12-20T12:57:17;2.00;2.00;1.00
77320;PMS7003;66382;52.252;8.780;2023-12-20T12:59:43;2.75;2.75;2.50
77320;PMS7003;66382;52.252;8.780;2023-12-20T13:02:09;1.00;1.00;1.00
77320;PMS7003;66382;52.252;8.780;2023-12-20T13:04:34;1.75;1.75;1.00
77320;PMS7003;66382;52.252;8.780;2023-12-20T13:07:00;1.00;1.00;0.75
77320;PMS7003;66382;52.252;8.780;2023-12-20T13:09:25;2.00;2.00;1.00
77320;PMS7003;66382;52.252;8.780;2023-12-20T13:11:52;0.50;0.50;0.50
77320;PMS7003;66382;52.252;8.780;2023-12-20T13:14:18;0.50;0.50;0.00
77320;PMS7003;66382;52.252;8.780;2023-12-20T13:16:43;0.25;0.25;0.00
77320;PMS7003;66382;52.252;8.780;2023-12-20T13:19:09;1.00;1.00;1.00
77320;PMS7003;66382;52.252;8.780;2023-12-20T13:21:34;0.75;0.75;0.75
77320;PMS7003;66382;52.252;8.780;2023-12-20T13:24:00;1.25;1.25;1.00
77320;PMS7003;66382;52.252;8.780;2023-12-20T13:26:25;1.75;1.75;1.00
77320;PMS7003;66382;52.252;8.780;2023-12-20T13:28:53;1.00;1.00;0.50
77320;PMS7003;66382;52.252;8.780;2023-12-20T13:31:19;1.00;1.00;1.00
77320;PMS7003;66382;52.252;8.780;2023-12-20T13:33:45;1.75;1.75;1.25
77320;PMS7003;66382;52.252;8.780;2023-12-20T13:36:10;1.00;1.00;0.00
77320;PMS7003;66382;52.252;8.780;2023-12-20T13:38:36;1.00;1.00;0.75
77320;PMS7003;66382;52.252;8.780;2023-12-20T13:41:01;3.00;3.00;2.00
77320;PMS7003;66382;52.252;8.780;2023-12-20T13:43:27;2.00;2.00;2.00
77320;PMS7003;66382;52.252;8.780;2023-12-20T13:45:54;1.50;1.50;1.25
77320;PMS7003;66382;52.252;8.780;2023-12-20T13:48:20;15.50;15.50;11.00
77320;PMS7003;66382;52.252;8.780;2023-12-20T13:50:45;3.00;3.00;2.00
77320;PMS7003;66382;52.252;8.780;2023-12-20T13:53:11;3.00;3.00;2.25
77320;PMS7003;66382;52.252;8.780;2023-12-20T13:55:36;1.00;1.00;1.00
77320;PMS7003;66382;52.252;8.780;2023-12-20T13:58:01;0.25;0.25;0.25
77320;PMS7003;66382;52.252;8.780;2023-12-20T14:00:27;0.00;0.00;0.00
77320;PMS7003;66382;52.252;8.780;2023-12-20T14:02:54;1.00;1.00;1.00
77320;PMS7003;66382;52.252;8.780;2023-12-20T14:05:19;0.75;0.75;0.50
77320;PMS7003;66382;52.252;8.780;2023-12-20T14:07:45;1.00;1.00;1.00
77320;PMS7003;66382;52.252;8.780;2023-12-20T14:10:10;3.00;3.00;2.00
77320;PMS7003;66382;52.252;8.780;2023-12-20T14:12:36;4.75;4.75;3.75
77320;PMS7003;66382;52.252;8.780;2023-12-20T14:15:03;1.00;1.00;1.00